createdAt,value
2022-08-26T00:18:22.628Z,12.50
2022-08-26T00:20:50.242Z,11.40
2022-08-26T00:23:17.953Z,13.38
2022-08-26T00:25:45.118Z,13.30
2022-08-26T00:28:12.632Z,12.30
2022-08-26T00:30:41.737Z,13.38
2022-08-26T00:33:09.821Z,13.10
2022-08-26T00:35:38.132Z,13.27
2022-08-26T00:38:11.127Z,13.95
2022-08-26T00:40:45.616Z,14.45
2022-08-26T00:43:12.945Z,13.32
2022-08-26T00:45:44.983Z,14.27
2022-08-26T00:48:12.574Z,14.10
2022-08-26T00:50:42.399Z,14.77
2022-08-26T00:53:21.551Z,14.40
2022-08-26T00:55:59.731Z,14.95
2022-08-26T00:58:28.561Z,15.98
2022-08-26T01:00:56.430Z,14.80
2022-08-26T01:03:25.557Z,13.77
2022-08-26T01:05:55.235Z,15.13
2022-08-26T01:08:23.452Z,15.75
2022-08-26T01:10:52.420Z,15.43
2022-08-26T01:13:24.409Z,14.77
2022-08-26T01:15:54.677Z,13.52
2022-08-26T01:18:22.292Z,14.80
2022-08-26T01:21:06.636Z,15.50
2022-08-26T01:23:38.650Z,14.73
2022-08-26T01:26:08.764Z,15.60
2022-08-26T01:28:50.638Z,14.98
2022-08-26T01:31:20.004Z,15.30
2022-08-26T01:33:47.208Z,15.30
2022-08-26T01:36:15.202Z,15.65
2022-08-26T01:38:43.620Z,15.93
2022-08-26T01:41:16.280Z,16.25
2022-08-26T01:43:48.493Z,15.77
2022-08-26T01:46:16.836Z,14.88
2022-08-26T01:48:45.611Z,15.70
2022-08-26T01:51:15.756Z,15.43
2022-08-26T01:53:43.156Z,15.55
2022-08-26T01:56:15.532Z,14.57
2022-08-26T01:58:46.103Z,14.93
2022-08-26T02:01:13.502Z,15.35
2022-08-26T02:03:51.571Z,14.60
2022-08-26T02:06:19.731Z,15.52
2022-08-26T02:08:51.744Z,16.20
2022-08-26T02:11:19.303Z,16.10
2022-08-26T02:13:49.075Z,15.65
2022-08-26T02:16:18.913Z,14.60
2022-08-26T02:18:46.998Z,15.60
2022-08-26T02:21:14.423Z,16.35
2022-08-26T02:23:42.621Z,17.13
2022-08-26T02:26:11.796Z,16.55
2022-08-26T02:28:47.549Z,15.75
2022-08-26T02:31:16.162Z,15.02
2022-08-26T02:33:43.745Z,17.77
2022-08-26T02:36:12.156Z,15.38
2022-08-26T02:38:40.769Z,17.10
2022-08-26T02:41:11.273Z,18.55
2022-08-26T02:43:38.474Z,20.00
2022-08-26T02:46:06.244Z,18.70
2022-08-26T02:48:33.625Z,20.20
2022-08-26T02:51:01.396Z,21.50
2022-08-26T02:53:31.703Z,19.77
2022-08-26T02:55:59.825Z,20.65
2022-08-26T02:58:27.341Z,31.70
2022-08-26T03:00:54.751Z,32.35
2022-08-26T03:03:23.747Z,33.88
2022-08-26T03:05:51.335Z,34.97
2022-08-26T03:08:18.758Z,35.63
2022-08-26T03:10:49.410Z,38.13
2022-08-26T03:13:16.665Z,37.55
2022-08-26T03:15:44.642Z,41.08
2022-08-26T03:18:14.988Z,43.95
2022-08-26T03:20:42.234Z,44.47
2022-08-26T03:23:11.294Z,48.55
2022-08-26T03:25:38.664Z,51.13
2022-08-26T03:28:05.927Z,54.08
2022-08-26T03:30:44.655Z,55.30
2022-08-26T03:33:12.921Z,58.22
2022-08-26T03:35:41.051Z,56.35
2022-08-26T03:38:09.082Z,58.28
2022-08-26T03:40:37.140Z,55.67
2022-08-26T03:43:05.916Z,59.45
2022-08-26T03:45:33.405Z,62.03
2022-08-26T03:48:00.944Z,60.88
2022-08-26T03:50:29.121Z,63.22
2022-08-26T03:52:56.853Z,61.50
2022-08-26T03:55:25.361Z,57.55
2022-08-26T03:57:54.396Z,61.20
2022-08-26T04:00:22.809Z,58.78
2022-08-26T04:02:53.461Z,59.20
2022-08-26T04:05:21.825Z,58.83
2022-08-26T04:07:50.401Z,58.17
2022-08-26T04:10:20.066Z,57.83
2022-08-26T04:12:47.932Z,61.15
2022-08-26T04:15:16.087Z,58.53
2022-08-26T04:17:45.089Z,55.80
2022-08-26T04:20:18.248Z,55.63
2022-08-26T04:22:46.176Z,54.55
2022-08-26T04:25:13.709Z,55.65
2022-08-26T04:27:40.963Z,54.17
2022-08-26T04:30:09.026Z,53.00
2022-08-26T04:32:37.341Z,53.33
2022-08-26T04:35:05.427Z,52.67
2022-08-26T04:37:33.571Z,50.15
2022-08-26T04:40:00.897Z,54.08
2022-08-26T04:42:29.313Z,50.63
2022-08-26T04:44:56.564Z,50.47
2022-08-26T04:47:27.158Z,50.75
2022-08-26T04:49:59.027Z,48.78
2022-08-26T04:52:26.538Z,51.92
2022-08-26T04:54:55.424Z,50.60
2022-08-26T04:57:23.297Z,49.88
2022-08-26T04:59:50.704Z,52.85
2022-08-26T05:02:18.099Z,51.17
2022-08-26T05:04:45.421Z,54.25
2022-08-26T05:07:12.920Z,53.95
2022-08-26T05:09:41.205Z,57.53
2022-08-26T05:12:09.395Z,53.42
2022-08-26T05:14:36.855Z,52.65
2022-08-26T05:17:04.180Z,53.38
2022-08-26T05:19:32.803Z,51.00
2022-08-26T05:21:59.996Z,51.92
2022-08-26T05:24:27.326Z,50.08
2022-08-26T05:26:54.641Z,49.42
2022-08-26T05:29:24.687Z,49.85
2022-08-26T05:31:53.339Z,49.42
2022-08-26T05:34:23.289Z,48.20
2022-08-26T05:36:53.096Z,48.47
2022-08-26T05:39:24.642Z,49.13
2022-08-26T05:41:52.051Z,48.28
2022-08-26T05:44:21.030Z,48.25
2022-08-26T05:46:49.753Z,45.05
2022-08-26T05:49:18.683Z,47.22
2022-08-26T05:51:47.738Z,47.45
2022-08-26T05:54:22.207Z,45.92
2022-08-26T05:56:50.147Z,45.28
2022-08-26T05:59:17.416Z,46.97
2022-08-26T06:01:51.206Z,43.85
2022-08-26T06:04:18.567Z,43.20
2022-08-26T06:06:47.299Z,37.95
2022-08-26T06:09:14.698Z,39.03
2022-08-26T06:11:45.375Z,39.75
2022-08-26T06:14:12.792Z,35.75
2022-08-26T06:16:41.354Z,37.83
2022-08-26T06:19:10.538Z,35.13
2022-08-26T06:21:39.385Z,35.92
2022-08-26T06:24:27.517Z,35.50
2022-08-26T06:26:56.621Z,34.45
2022-08-26T06:29:25.802Z,35.50
2022-08-26T06:31:54.167Z,64.13
2022-08-26T06:34:29.890Z,37.55
2022-08-26T06:36:58.685Z,40.42
2022-08-26T06:39:26.000Z,37.85
2022-08-26T06:41:53.513Z,36.83
2022-08-26T06:44:22.377Z,34.13
2022-08-26T06:46:50.550Z,32.33
2022-08-26T06:49:25.718Z,31.98
2022-08-26T06:51:55.260Z,33.05
2022-08-26T06:54:22.478Z,33.10
2022-08-26T06:56:49.752Z,35.45
2022-08-26T06:59:17.216Z,34.72
2022-08-26T07:01:45.424Z,33.83
2022-08-26T07:04:14.609Z,34.03
2022-08-26T07:06:47.049Z,33.40
2022-08-26T07:09:14.367Z,34.40
2022-08-26T07:11:41.924Z,34.35
2022-08-26T07:14:09.280Z,32.75
2022-08-26T07:16:36.929Z,30.98
2022-08-26T07:19:11.187Z,31.27
2022-08-26T07:21:40.382Z,30.87
2022-08-26T07:24:07.937Z,41.40
2022-08-26T07:26:35.136Z,33.72
2022-08-26T07:29:02.496Z,32.45
2022-08-26T07:31:33.611Z,46.10
2022-08-26T07:34:07.654Z,34.55
2022-08-26T07:36:35.599Z,35.00
2022-08-26T07:39:02.851Z,33.90
2022-08-26T07:44:02.138Z,33.55
2022-08-26T07:46:31.729Z,33.67
2022-08-26T07:48:59.486Z,31.95
2022-08-26T07:51:27.375Z,32.22
2022-08-26T07:53:55.112Z,29.75
2022-08-26T07:56:23.286Z,29.40
2022-08-26T07:58:51.996Z,28.88
2022-08-26T08:01:20.505Z,27.77
2022-08-26T08:03:51.558Z,27.77
2022-08-26T08:06:20.502Z,28.15
2022-08-26T08:08:48.163Z,25.75
2022-08-26T08:11:20.442Z,26.77
2022-08-26T08:13:48.180Z,26.58
2022-08-26T08:16:16.157Z,30.27
2022-08-26T08:18:43.320Z,28.65
2022-08-26T08:21:22.156Z,28.05
2022-08-26T08:23:51.981Z,29.33
2022-08-26T08:26:19.234Z,25.38
2022-08-26T08:28:47.952Z,22.23
2022-08-26T08:31:44.958Z,22.77
2022-08-26T08:34:09.323Z,23.55
2022-08-26T08:36:36.599Z,20.83
2022-08-26T08:39:03.958Z,22.77
2022-08-26T08:41:43.541Z,23.90
2022-08-26T08:44:18.361Z,22.17
2022-08-26T08:46:45.873Z,20.75
2022-08-26T08:49:14.279Z,20.90
2022-08-26T08:52:00.251Z,20.25
2022-08-26T08:54:29.047Z,20.45
2022-08-26T08:57:06.520Z,20.38
2022-08-26T08:59:38.271Z,21.42
2022-08-26T09:02:29.898Z,23.60
2022-08-26T09:05:16.385Z,23.10
2022-08-26T09:07:47.119Z,23.45
2022-08-26T09:10:20.535Z,20.17
2022-08-26T09:12:48.400Z,20.88
2022-08-26T09:15:23.947Z,19.20
2022-08-26T09:17:59.943Z,18.65
2022-08-26T09:22:54.216Z,18.65
2022-08-26T09:25:21.662Z,20.50
2022-08-26T09:27:50.409Z,19.50
2022-08-26T09:30:24.241Z,18.92
2022-08-26T09:32:59.527Z,20.58
2022-08-26T09:35:31.041Z,19.88
2022-08-26T09:37:58.638Z,19.38
2022-08-26T09:40:34.536Z,17.80
2022-08-26T09:43:10.025Z,18.83
2022-08-26T09:45:38.829Z,21.77
2022-08-26T09:48:07.277Z,97.72
2022-08-26T09:50:53.797Z,19.38
2022-08-26T09:53:28.739Z,20.10
2022-08-26T09:56:33.048Z,19.17
2022-08-26T09:59:01.639Z,20.45
2022-08-26T10:01:42.097Z,19.33
2022-08-26T10:04:12.284Z,17.35
2022-08-26T10:06:44.369Z,19.38
2022-08-26T10:09:14.276Z,18.20
2022-08-26T10:11:41.453Z,17.13
2022-08-26T10:14:11.240Z,16.48
2022-08-26T10:16:41.476Z,16.13
2022-08-26T10:19:08.737Z,17.25
2022-08-26T10:21:43.100Z,17.08
2022-08-26T10:24:11.825Z,19.25
2022-08-26T10:26:58.500Z,16.70
2022-08-26T10:29:47.461Z,14.68
2022-08-26T10:32:17.196Z,17.27
2022-08-26T10:34:45.244Z,19.92
2022-08-26T10:37:19.004Z,15.05
2022-08-26T10:39:58.643Z,14.02
2022-08-26T10:42:37.759Z,14.05
2022-08-26T10:45:16.048Z,16.52
2022-08-26T10:48:05.275Z,12.95
2022-08-26T10:50:37.473Z,12.60
2022-08-26T10:53:28.245Z,14.20
2022-08-26T10:56:19.438Z,13.87
2022-08-26T10:58:55.889Z,14.57
2022-08-26T11:01:44.243Z,13.52
2022-08-26T11:04:14.344Z,14.30
2022-08-26T11:06:41.940Z,13.52
2022-08-26T11:09:09.611Z,13.80
2022-08-26T11:11:42.809Z,12.55
2022-08-26T11:14:33.027Z,14.40
2022-08-26T11:17:11.397Z,11.48
2022-08-26T11:19:59.536Z,10.95
2022-08-26T11:22:29.726Z,17.20
2022-08-26T11:24:56.990Z,10.55
2022-08-26T11:27:27.112Z,44.35
2022-08-26T11:29:59.271Z,11.10
2022-08-26T11:32:45.740Z,8.48
2022-08-26T11:35:19.341Z,8.43
2022-08-26T11:37:49.064Z,9.07
2022-08-26T11:40:21.362Z,7.47
2022-08-26T11:42:58.159Z,7.30
2022-08-26T11:45:34.684Z,8.25
2022-08-26T11:48:21.235Z,10.27
2022-08-26T11:50:54.549Z,7.20
2022-08-26T11:53:22.963Z,6.35
2022-08-26T11:55:52.285Z,6.82
2022-08-26T11:58:21.461Z,6.03
2022-08-26T12:00:52.113Z,6.35
2022-08-26T12:03:22.931Z,6.70
2022-08-26T12:05:52.064Z,5.93
2022-08-26T12:08:21.605Z,5.75
2022-08-26T12:10:49.112Z,6.03
2022-08-26T12:13:24.211Z,5.10
2022-08-26T12:15:55.882Z,5.68
2022-08-26T12:18:28.803Z,11.50
2022-08-26T12:20:56.401Z,6.28
2022-08-26T12:23:36.489Z,5.57
2022-08-26T12:26:12.480Z,6.25
2022-08-26T12:28:43.712Z,5.35
2022-08-26T12:31:11.283Z,5.78
2022-08-26T12:33:38.749Z,5.25
2022-08-26T12:36:06.750Z,19.33
2022-08-26T12:38:36.930Z,6.82
2022-08-26T12:41:04.217Z,5.53
2022-08-26T12:43:42.710Z,5.25
2022-08-26T12:46:11.638Z,4.10
2022-08-26T12:48:40.984Z,11.32
2022-08-26T12:51:09.621Z,5.88
2022-08-26T12:53:42.296Z,4.53
2022-08-26T12:56:27.163Z,5.45
2022-08-26T12:59:03.242Z,4.03
2022-08-26T13:01:38.055Z,3.08
2022-08-26T13:04:06.888Z,3.17
2022-08-26T13:06:34.995Z,4.82
2022-08-26T13:09:08.221Z,3.95
2022-08-26T13:11:35.652Z,4.35
2022-08-26T13:14:11.687Z,4.30
2022-08-26T13:16:49.265Z,3.58
2022-08-26T13:19:20.773Z,3.70
2022-08-26T13:21:50.121Z,3.45
2022-08-26T13:24:20.378Z,3.03
2022-08-26T13:26:49.124Z,3.47
2022-08-26T13:29:16.639Z,3.35
2022-08-26T13:31:45.078Z,3.35
2022-08-26T13:34:13.372Z,4.93
2022-08-26T13:36:42.503Z,2.90
2022-08-26T13:39:09.775Z,2.63
2022-08-26T13:41:36.992Z,5.63
2022-08-26T13:44:04.749Z,3.13
2022-08-26T13:46:32.139Z,3.10
2022-08-26T13:48:59.528Z,8.30
2022-08-26T13:51:27.111Z,6.25
2022-08-26T13:53:54.780Z,10.05
2022-08-26T13:56:22.920Z,3.80
2022-08-26T13:58:50.137Z,3.20
2022-08-26T14:01:17.785Z,3.20
2022-08-26T14:03:46.135Z,4.07
2022-08-26T14:06:13.492Z,3.88
2022-08-26T14:08:41.012Z,4.43
2022-08-26T14:11:08.228Z,4.13
2022-08-26T14:13:36.167Z,4.65
2022-08-26T14:16:05.431Z,4.78
2022-08-26T14:18:37.268Z,6.45
2022-08-26T14:21:07.809Z,7.05
2022-08-26T14:23:35.206Z,7.68
2022-08-26T14:26:08.048Z,6.55
2022-08-26T14:28:36.132Z,3.95
2022-08-26T14:31:03.501Z,5.13
2022-08-26T14:33:32.573Z,3.92
2022-08-26T14:36:18.889Z,4.80
2022-08-26T14:38:46.701Z,22.63
2022-08-26T14:41:14.869Z,6.65
2022-08-26T14:43:44.745Z,5.57
2022-08-26T14:46:12.137Z,5.80
2022-08-26T14:48:39.360Z,11.80
2022-08-26T14:51:06.564Z,3.72
2022-08-26T14:53:52.567Z,4.03
2022-08-26T14:56:19.783Z,3.50
2022-08-26T14:58:46.975Z,2.92
2022-08-26T15:01:15.104Z,3.05
2022-08-26T15:03:42.682Z,2.70
2022-08-26T15:06:11.028Z,3.47
2022-08-26T15:08:38.282Z,2.33
2022-08-26T15:11:05.612Z,1.83
2022-08-26T15:13:32.860Z,2.38
2022-08-26T15:16:00.105Z,2.35
2022-08-26T15:18:27.389Z,3.58
2022-08-26T15:20:54.708Z,5.35
2022-08-26T15:23:22.164Z,2.72
2022-08-26T15:25:49.681Z,2.95
2022-08-26T15:28:16.964Z,10.02
2022-08-26T15:30:44.512Z,5.57
2022-08-26T15:33:15.236Z,4.85
2022-08-26T15:35:42.939Z,2.65
2022-08-26T15:38:11.133Z,3.13
2022-08-26T15:40:38.685Z,5.43
2022-08-26T15:43:25.631Z,4.32
2022-08-26T15:45:54.715Z,4.50
2022-08-26T15:48:22.512Z,3.90
2022-08-26T15:51:00.519Z,3.70
2022-08-26T15:53:28.510Z,5.80
2022-08-26T15:55:56.517Z,8.35
2022-08-26T15:58:26.944Z,5.10
2022-08-26T16:00:54.865Z,8.05
2022-08-26T16:03:22.718Z,3.50
2022-08-26T16:05:50.208Z,5.05
2022-08-26T16:08:18.888Z,4.50
2022-08-26T16:10:50.632Z,5.68
2022-08-26T16:13:19.423Z,4.40
2022-08-26T16:15:47.608Z,4.05
2022-08-26T16:18:15.528Z,3.95
2022-08-26T16:21:02.716Z,4.70
2022-08-26T16:23:38.539Z,3.60
2022-08-26T16:26:12.366Z,4.53
2022-08-26T16:28:39.996Z,3.85
2022-08-26T16:31:09.519Z,4.20
2022-08-26T16:33:40.680Z,5.50
2022-08-26T16:36:08.653Z,5.43
2022-08-26T16:38:37.594Z,3.72
2022-08-26T16:41:05.287Z,4.88
2022-08-26T16:43:32.691Z,4.75
2022-08-26T16:46:00.199Z,5.03
2022-08-26T16:48:27.494Z,4.70
2022-08-26T16:50:55.759Z,4.18
2022-08-26T16:53:23.333Z,4.53
2022-08-26T16:55:50.667Z,3.65
2022-08-26T16:58:18.398Z,3.92
2022-08-26T17:00:45.593Z,4.25
2022-08-26T17:03:13.046Z,3.88
2022-08-26T17:05:40.486Z,4.55
2022-08-26T17:08:07.826Z,7.22
2022-08-26T17:10:35.190Z,6.30
2022-08-26T17:13:02.583Z,4.10
2022-08-26T17:15:29.923Z,4.93
2022-08-26T17:17:57.245Z,6.10
2022-08-26T17:20:25.296Z,5.70
2022-08-26T17:22:54.306Z,3.35
2022-08-26T17:25:24.008Z,3.30
2022-08-26T17:27:51.479Z,3.92
2022-08-26T17:30:19.226Z,4.50
2022-08-26T17:32:46.420Z,3.80
2022-08-26T17:35:14.162Z,5.47
2022-08-26T17:37:41.806Z,4.03
2022-08-26T17:40:10.417Z,3.95
2022-08-26T17:42:38.188Z,3.20
2022-08-26T17:45:06.148Z,3.50
2022-08-26T17:47:33.955Z,3.42
2022-08-26T17:50:04.015Z,3.92
2022-08-26T17:52:31.246Z,3.45
2022-08-26T17:54:59.221Z,3.67
2022-08-26T17:57:26.647Z,4.00
2022-08-26T17:59:54.033Z,4.00
2022-08-26T18:02:22.871Z,4.25
2022-08-26T18:04:50.076Z,3.70
2022-08-26T18:07:17.680Z,3.25
2022-08-26T18:09:44.944Z,3.80
2022-08-26T18:12:12.592Z,5.78
2022-08-26T18:14:39.745Z,7.13
2022-08-26T18:17:07.816Z,4.03
2022-08-26T18:19:35.267Z,5.82
2022-08-26T18:22:02.610Z,3.70
2022-08-26T18:24:32.175Z,4.97
2022-08-26T18:26:59.348Z,8.07
2022-08-26T18:29:27.921Z,19.27
2022-08-26T18:31:55.134Z,3.70
2022-08-26T18:34:22.383Z,3.60
2022-08-26T18:36:52.301Z,3.05
2022-08-26T18:39:19.665Z,6.15
2022-08-26T18:41:54.489Z,3.20
2022-08-26T18:44:23.308Z,2.97
2022-08-26T18:46:51.424Z,2.72
2022-08-26T18:49:19.273Z,3.10
2022-08-26T18:51:46.944Z,3.38
2022-08-26T18:54:14.406Z,4.05
2022-08-26T18:56:42.450Z,3.10
2022-08-26T18:59:09.640Z,3.10
2022-08-26T19:01:37.788Z,3.35
2022-08-26T19:04:05.884Z,3.58
2022-08-26T19:06:35.413Z,2.70
2022-08-26T19:09:03.717Z,3.45
2022-08-26T19:11:37.298Z,3.58
2022-08-26T19:14:07.635Z,5.32
2022-08-26T19:16:34.954Z,2.80
2022-08-26T19:19:02.156Z,2.50
2022-08-26T19:21:29.668Z,4.05
2022-08-26T19:23:58.003Z,3.05
2022-08-26T19:26:25.548Z,3.45
2022-08-26T19:28:52.896Z,2.88
2022-08-26T19:31:20.382Z,5.43
2022-08-26T19:33:47.651Z,5.75
2022-08-26T19:36:19.985Z,2.97
2022-08-26T19:38:47.596Z,2.88
2022-08-26T19:41:15.995Z,3.58
2022-08-26T19:43:43.373Z,2.50
2022-08-26T19:46:19.980Z,3.33
2022-08-26T19:48:47.652Z,2.40
2022-08-26T19:51:15.638Z,2.30
2022-08-26T19:53:43.733Z,2.38
2022-08-26T19:56:11.221Z,2.47
2022-08-26T19:58:38.400Z,2.10
2022-08-26T20:01:06.273Z,2.08
2022-08-26T20:03:34.201Z,3.08
2022-08-26T20:06:03.343Z,2.08
2022-08-26T20:08:30.534Z,5.22
2022-08-26T20:11:01.004Z,2.60
2022-08-26T20:13:28.371Z,1.85
2022-08-26T20:15:55.537Z,2.90
2022-08-26T20:18:41.484Z,2.75
2022-08-26T20:24:03.467Z,1.70
2022-08-26T20:26:32.317Z,5.88
2022-08-26T20:28:59.587Z,2.40
2022-08-26T20:31:27.472Z,1.50
2022-08-26T20:33:54.749Z,3.65
2022-08-26T20:36:22.790Z,4.25
2022-08-26T20:38:50.634Z,2.50
2022-08-26T20:41:18.151Z,1.33
2022-08-26T20:43:47.047Z,1.38
2022-08-26T20:46:18.169Z,1.48
2022-08-26T20:48:47.028Z,1.73
2022-08-26T20:51:16.093Z,1.70
2022-08-26T20:53:44.358Z,1.67
2022-08-26T20:56:12.769Z,1.25
2022-08-26T20:58:39.972Z,1.20
2022-08-26T21:01:08.260Z,1.30
2022-08-26T21:03:36.377Z,1.58
2022-08-26T21:06:03.938Z,2.30
2022-08-26T21:08:33.167Z,2.30
2022-08-26T21:11:01.048Z,3.03
2022-08-26T21:13:42.870Z,2.05
2022-08-26T21:16:15.935Z,1.10
2022-08-26T21:18:43.161Z,2.60
2022-08-26T21:21:10.960Z,1.40
2022-08-26T21:23:38.401Z,1.75
2022-08-26T21:26:06.756Z,1.80
2022-08-26T21:28:38.165Z,1.98
2022-08-26T21:31:09.732Z,1.30
2022-08-26T21:33:37.230Z,1.15
2022-08-26T21:36:05.300Z,1.00
2022-08-26T21:38:33.067Z,1.17
2022-08-26T21:41:05.033Z,1.20
2022-08-26T21:43:35.522Z,2.13
2022-08-26T21:46:11.631Z,1.85
2022-08-26T21:48:40.348Z,1.48
2022-08-26T21:51:07.524Z,2.40
2022-08-26T21:53:35.549Z,1.42
2022-08-26T21:56:06.882Z,1.48
2022-08-26T21:58:34.412Z,1.80
2022-08-26T22:01:01.926Z,2.17
2022-08-26T22:03:29.351Z,1.48
2022-08-26T22:06:02.292Z,1.80
2022-08-26T22:08:32.321Z,5.35
2022-08-26T22:11:00.788Z,3.47
2022-08-26T22:13:29.545Z,2.08
2022-08-26T22:15:57.821Z,4.15
2022-08-26T22:18:25.781Z,8.15
2022-08-26T22:20:54.011Z,2.20
2022-08-26T22:23:21.708Z,2.53
2022-08-26T22:25:49.421Z,9.25
2022-08-26T22:28:17.359Z,4.93
2022-08-26T22:30:45.266Z,3.05
2022-08-26T22:33:12.433Z,2.25
2022-08-26T22:35:44.937Z,1.85
2022-08-26T22:38:12.147Z,17.30
2022-08-26T22:40:43.734Z,2.10
2022-08-26T22:43:10.897Z,3.65
2022-08-26T22:45:40.732Z,3.88
2022-08-26T22:48:08.100Z,2.92
2022-08-26T22:50:35.410Z,1.95
2022-08-26T22:53:02.785Z,2.15
2022-08-26T22:55:30.133Z,1.70
2022-08-26T22:57:57.533Z,1.02
2022-08-26T23:00:31.902Z,4.70
2022-08-26T23:02:59.978Z,1.95
2022-08-26T23:05:27.234Z,2.30
2022-08-26T23:07:56.228Z,1.83
2022-08-26T23:10:23.897Z,2.03
2022-08-26T23:12:52.412Z,1.42
2022-08-26T23:15:20.785Z,1.63
2022-08-26T23:17:48.571Z,1.83
2022-08-26T23:20:26.319Z,1.13
2022-08-26T23:22:53.746Z,1.73
2022-08-26T23:25:21.060Z,1.70
2022-08-26T23:27:48.549Z,3.78
2022-08-26T23:30:17.748Z,2.88
2022-08-26T23:32:45.060Z,2.97
2022-08-26T23:35:14.201Z,1.50
2022-08-26T23:37:44.233Z,2.50
2022-08-26T23:40:15.391Z,3.10
2022-08-26T23:42:42.641Z,2.00
2022-08-26T23:45:10.807Z,2.45
2022-08-26T23:47:37.956Z,2.30
2022-08-26T23:50:05.445Z,3.78
2022-08-26T23:52:51.789Z,2.40
2022-08-26T23:55:19.008Z,1.52
2022-08-26T23:57:46.436Z,1.70
